Ole-arvid Nergaard — LLAY — position and weather

sailwx.info

Track history (hours):
 
Tides and Currents Weather Stations Pressure Air Temp Water Temp Dewpoint Dewpoint Depression Visibility Wind Speed Wind Dir Waves Ship Positions

Ole-arvid Nergaard

Last reported at 2015-May-28 13:33 UTC. Time now 2015-May-28 13:52 UTC.
Position N 69°40' E 018°59'.

Length 55 m; draft 7.2 m.

Type: Fishing. MMSI: 259656000.

Date/timePositionNaut miles runAvg speedWind from/ knotsBaromVisibWave heightAir tempDewpointWater temp
2015-May-28 13:33N 69°40' E 018°59'0 0.0
2015-May-28 12:33N 69°40' E 018°59'0 0.0
2015-May-28 11:33N 69°40' E 018°59'0 0.0
2015-May-28 10:32N 69°40' E 018°59'0 0.0
2015-May-28 09:33N 69°40' E 018°59'0 0.0
2015-May-28 08:33N 69°40' E 018°59'0 0.0
2015-May-28 07:32N 69°40' E 018°59'0 0.0
2015-May-28 06:33N 69°40' E 018°59'0 0.0
2015-May-28 05:33N 69°40' E 018°59'0 0.0
2015-May-28 04:33N 69°40' E 018°59'0 0.0
2015-May-28 03:33N 69°40' E 018°59'0 0.0
2015-May-28 02:33N 69°40' E 018°59'0 0.0
2015-May-28 01:33N 69°40' E 018°59'0 0.0
2015-May-28 00:33N 69°40' E 018°59'0 0.0
2015-May-27 23:33N 69°40' E 018°59'0 0.0
2015-May-27 22:33N 69°40' E 018°59'0 0.0
2015-May-27 21:33N 69°40' E 018°59'0 0.0
2015-May-27 20:33N 69°40' E 018°59'0 0.0
2015-May-27 19:33N 69°40' E 018°59'0 0.0
2015-May-27 18:33N 69°40' E 018°59'0 0.0
2015-May-27 17:33N 69°40' E 018°59'0 0.0
2015-May-27 16:33N 69°40' E 018°59'0 0.0
2015-May-27 15:33N 69°40' E 018°59'0 0.0
2015-May-27 14:33N 69°40' E 018°59'0 0.0
2015-May-27 13:31N 69°40' E 018°59'0 0.0
2015-May-27 12:33N 69°40' E 018°59'0 0.0
2015-May-27 11:32N 69°40' E 018°59'0 0.0
2015-May-27 10:18N 69°40' E 018°59'0 0.0
2015-May-27 09:33N 69°40' E 018°59'0 0.0
2015-May-27 08:25N 69°40' E 018°59'0 0.0
2015-May-27 07:31N 69°40' E 018°59'0 0.0
2015-May-27 06:33N 69°40' E 018°59'0 0.0
2015-May-27 05:33N 69°40' E 018°59'0 0.0
2015-May-27 04:33N 69°40' E 018°59'0 0.0
2015-May-27 03:33N 69°40' E 018°59'0 0.0
2015-May-27 02:33N 69°40' E 018°59'0 0.0
2015-May-27 01:33N 69°40' E 018°59'0 0.0
2015-May-27 00:33N 69°40' E 018°59'0 0.0
2015-May-26 23:33N 69°40' E 018°59'0 0.0
2015-May-26 22:33N 69°40' E 018°59'0 0.0
2015-May-26 21:33N 69°40' E 018°59'0 0.0
2015-May-26 20:33N 69°40' E 018°59'0 0.0
2015-May-26 19:33N 69°40' E 018°59'0 0.0
2015-May-26 18:33N 69°40' E 018°59'0 0.0
2015-May-26 17:33N 69°40' E 018°59'0 0.0
2015-May-26 16:33N 69°40' E 018°59'0 0.0
2015-May-26 15:33N 69°40' E 018°59'0 0.0
2015-May-26 14:33N 69°40' E 018°59'0 0.0
2015-May-26 13:33N 69°40' E 018°59'0 0.0
2015-May-26 12:33N 69°40' E 018°59'0 0.0
2015-May-26 11:33N 69°40' E 018°59'0 0.0
2015-May-26 10:33N 69°40' E 018°59'0 0.0
2015-May-26 09:33N 69°40' E 018°59'0 0.1
2015-May-26 08:33N 69°40' E 018°59'3 3.0
2015-May-26 07:33N 69°38' E 018°57'0 0.0
2015-May-26 06:32N 69°38' E 018°57'0 0.0
2015-May-26 05:33N 69°38' E 018°57'0 0.0
2015-May-26 04:33N 69°38' E 018°57'2 2.2
2015-May-26 03:33N 69°36' E 018°54'0 0.4
2015-May-26 02:33N 69°36' E 018°53'4 4.0
2015-May-26 01:33N 69°33' E 018°44'  
2015-May-22 01:33N 69°41' E 019°02'1 0.9
2015-May-22 00:33N 69°41' E 018°59'6 1.7
2015-May-21 21:05N 69°46' E 019°04'610.8
2015-May-21 20:33N 69°41' E 019°00'1 0.6
2015-May-21 19:33N 69°40' E 018°59'0 0.0
2015-May-21 18:33N 69°40' E 018°59'0 0.0
2015-May-21 17:33N 69°40' E 018°59'0 0.0
2015-May-21 16:33N 69°40' E 018°59'0 0.0
2015-May-21 15:33N 69°40' E 018°59'0 0.0
2015-May-21 14:33N 69°40' E 018°59'0 0.0
2015-May-21 13:31N 69°40' E 018°59'0 0.0
2015-May-21 12:33N 69°40' E 018°59'0 0.0
2015-May-21 11:33N 69°40' E 018°59'0 0.0
2015-May-21 10:33N 69°40' E 018°59'0 0.0
2015-May-21 09:33N 69°40' E 018°59'0 0.0
2015-May-21 08:33N 69°40' E 018°59'0 0.0
2015-May-21 07:33N 69°40' E 018°59'0 0.0
2015-May-21 06:33N 69°40' E 018°59'0 0.0
2015-May-21 05:33N 69°40' E 018°59'0 0.0
2015-May-21 04:33N 69°40' E 018°59'0 0.0
2015-May-21 03:33N 69°40' E 018°59'0 0.0
2015-May-21 02:33N 69°40' E 018°59'1 1.0
2015-May-21 01:33N 69°39' E 018°59'8 0.3
2015-May-19 21:30N 69°33' E 018°43'8 8.6
2015-May-19 20:33N 69°39' E 018°59'3 3.1
2015-May-19 19:33N 69°42' E 019°04'0 0.0
2015-May-19 18:33N 69°42' E 019°05'2 2.5
2015-May-19 17:33N 69°40' E 018°59'0 0.0
2015-May-19 16:33N 69°40' E 018°59'0 0.0
2015-May-19 15:33N 69°40' E 018°59'0 0.0
2015-May-19 14:33N 69°40' E 018°59'0 0.0
2015-May-19 13:32N 69°40' E 018°59'0 0.0
2015-May-19 12:33N 69°40' E 018°59'0 0.0
2015-May-19 11:33N 69°40' E 018°59'0 0.0
2015-May-19 10:33N 69°40' E 018°59'0 0.0
2015-May-19 09:33N 69°40' E 018°59'0 0.0
2015-May-19 08:33N 69°40' E 018°59'0 0.0
2015-May-19 07:30N 69°40' E 018°59'0 0.0
2015-May-19 06:33N 69°40' E 018°59'0 0.0
2015-May-19 05:33N 69°40' E 018°59'0 0.0
2015-May-19 04:33N 69°40' E 018°59'0 0.0
2015-May-19 03:33N 69°40' E 018°59'0 0.0
2015-May-19 02:33N 69°40' E 018°59'0 0.0
2015-May-19 01:33N 69°40' E 018°59'0 0.0
2015-May-19 00:33N 69°40' E 018°59'0 0.0
2015-May-18 23:33N 69°40' E 018°59'0 0.0
2015-May-18 22:33N 69°40' E 018°59'0 0.0
2015-May-18 21:33N 69°40' E 018°59'0 0.0
2015-May-18 20:33N 69°40' E 018°59'0 0.0
2015-May-18 19:33N 69°40' E 018°59'0 0.0
2015-May-18 18:33N 69°40' E 018°59'0 0.0
2015-May-18 17:33N 69°40' E 018°59'0 0.0
2015-May-18 16:33N 69°40' E 018°59'0 0.0
2015-May-18 15:33N 69°40' E 018°59'0 0.0
2015-May-18 14:33N 69°40' E 018°59'  
Track history (hours):
 
Tides and Currents Weather Stations Pressure Air Temp Water Temp Dewpoint Dewpoint Depression Visibility Wind Speed Wind Dir Waves Ship Positions

Ole-arvid Nergaard

Last reported at 2015-May-28 13:33 UTC. Time now 2015-May-28 13:52 UTC.
Position N 69°40' E 018°59'.

Length 55 m; draft 7.2 m.

Type: Fishing. MMSI: 259656000.

Date/timePositionNaut miles runAvg speedWind from/ knotsBaromVisibWave heightAir tempDewpointWater temp
2015-May-28 13:33N 69°40' E 018°59'0 0.0
2015-May-28 12:33N 69°40' E 018°59'0 0.0
2015-May-28 11:33N 69°40' E 018°59'0 0.0
2015-May-28 10:32N 69°40' E 018°59'0 0.0
2015-May-28 09:33N 69°40' E 018°59'0 0.0
2015-May-28 08:33N 69°40' E 018°59'0 0.0
2015-May-28 07:32N 69°40' E 018°59'0 0.0
2015-May-28 06:33N 69°40' E 018°59'0 0.0
2015-May-28 05:33N 69°40' E 018°59'0 0.0
2015-May-28 04:33N 69°40' E 018°59'0 0.0
2015-May-28 03:33N 69°40' E 018°59'0 0.0
2015-May-28 02:33N 69°40' E 018°59'0 0.0
2015-May-28 01:33N 69°40' E 018°59'0 0.0
2015-May-28 00:33N 69°40' E 018°59'0 0.0
2015-May-27 23:33N 69°40' E 018°59'0 0.0
2015-May-27 22:33N 69°40' E 018°59'0 0.0
2015-May-27 21:33N 69°40' E 018°59'0 0.0
2015-May-27 20:33N 69°40' E 018°59'0 0.0
2015-May-27 19:33N 69°40' E 018°59'0 0.0
2015-May-27 18:33N 69°40' E 018°59'0 0.0
2015-May-27 17:33N 69°40' E 018°59'0 0.0
2015-May-27 16:33N 69°40' E 018°59'0 0.0
2015-May-27 15:33N 69°40' E 018°59'0 0.0
2015-May-27 14:33N 69°40' E 018°59'0 0.0
2015-May-27 13:31N 69°40' E 018°59'0 0.0
2015-May-27 12:33N 69°40' E 018°59'0 0.0
2015-May-27 11:32N 69°40' E 018°59'0 0.0
2015-May-27 10:18N 69°40' E 018°59'0 0.0
2015-May-27 09:33N 69°40' E 018°59'0 0.0
2015-May-27 08:25N 69°40' E 018°59'0 0.0
2015-May-27 07:31N 69°40' E 018°59'0 0.0
2015-May-27 06:33N 69°40' E 018°59'0 0.0
2015-May-27 05:33N 69°40' E 018°59'0 0.0
2015-May-27 04:33N 69°40' E 018°59'0 0.0
2015-May-27 03:33N 69°40' E 018°59'0 0.0
2015-May-27 02:33N 69°40' E 018°59'0 0.0
2015-May-27 01:33N 69°40' E 018°59'0 0.0
2015-May-27 00:33N 69°40' E 018°59'0 0.0
2015-May-26 23:33N 69°40' E 018°59'0 0.0
2015-May-26 22:33N 69°40' E 018°59'0 0.0
2015-May-26 21:33N 69°40' E 018°59'0 0.0
2015-May-26 20:33N 69°40' E 018°59'0 0.0
2015-May-26 19:33N 69°40' E 018°59'0 0.0
2015-May-26 18:33N 69°40' E 018°59'0 0.0
2015-May-26 17:33N 69°40' E 018°59'0 0.0
2015-May-26 16:33N 69°40' E 018°59'0 0.0
2015-May-26 15:33N 69°40' E 018°59'0 0.0
2015-May-26 14:33N 69°40' E 018°59'0 0.0
2015-May-26 13:33N 69°40' E 018°59'0 0.0
2015-May-26 12:33N 69°40' E 018°59'0 0.0
2015-May-26 11:33N 69°40' E 018°59'0 0.0
2015-May-26 10:33N 69°40' E 018°59'0 0.0
2015-May-26 09:33N 69°40' E 018°59'0 0.1
2015-May-26 08:33N 69°40' E 018°59'3 3.0
2015-May-26 07:33N 69°38' E 018°57'0 0.0
2015-May-26 06:32N 69°38' E 018°57'0 0.0
2015-May-26 05:33N 69°38' E 018°57'0 0.0
2015-May-26 04:33N 69°38' E 018°57'2 2.2
2015-May-26 03:33N 69°36' E 018°54'0 0.4
2015-May-26 02:33N 69°36' E 018°53'4 4.0
2015-May-26 01:33N 69°33' E 018°44'  
2015-May-22 01:33N 69°41' E 019°02'1 0.9
2015-May-22 00:33N 69°41' E 018°59'6 1.7
2015-May-21 21:05N 69°46' E 019°04'610.8
2015-May-21 20:33N 69°41' E 019°00'1 0.6
2015-May-21 19:33N 69°40' E 018°59'0 0.0
2015-May-21 18:33N 69°40' E 018°59'0 0.0
2015-May-21 17:33N 69°40' E 018°59'0 0.0
2015-May-21 16:33N 69°40' E 018°59'0 0.0
2015-May-21 15:33N 69°40' E 018°59'0 0.0
2015-May-21 14:33N 69°40' E 018°59'0 0.0
2015-May-21 13:31N 69°40' E 018°59'0 0.0
2015-May-21 12:33N 69°40' E 018°59'0 0.0
2015-May-21 11:33N 69°40' E 018°59'0 0.0
2015-May-21 10:33N 69°40' E 018°59'0 0.0
2015-May-21 09:33N 69°40' E 018°59'0 0.0
2015-May-21 08:33N 69°40' E 018°59'0 0.0
2015-May-21 07:33N 69°40' E 018°59'0 0.0
2015-May-21 06:33N 69°40' E 018°59'0 0.0
2015-May-21 05:33N 69°40' E 018°59'0 0.0
2015-May-21 04:33N 69°40' E 018°59'0 0.0
2015-May-21 03:33N 69°40' E 018°59'0 0.0
2015-May-21 02:33N 69°40' E 018°59'1 1.0
2015-May-21 01:33N 69°39' E 018°59'8 0.3
2015-May-19 21:30N 69°33' E 018°43'8 8.6
2015-May-19 20:33N 69°39' E 018°59'3 3.1
2015-May-19 19:33N 69°42' E 019°04'0 0.0
2015-May-19 18:33N 69°42' E 019°05'2 2.5
2015-May-19 17:33N 69°40' E 018°59'0 0.0
2015-May-19 16:33N 69°40' E 018°59'0 0.0
2015-May-19 15:33N 69°40' E 018°59'0 0.0
2015-May-19 14:33N 69°40' E 018°59'0 0.0
2015-May-19 13:32N 69°40' E 018°59'0 0.0
2015-May-19 12:33N 69°40' E 018°59'0 0.0
2015-May-19 11:33N 69°40' E 018°59'0 0.0
2015-May-19 10:33N 69°40' E 018°59'0 0.0
2015-May-19 09:33N 69°40' E 018°59'0 0.0
2015-May-19 08:33N 69°40' E 018°59'0 0.0
2015-May-19 07:30N 69°40' E 018°59'0 0.0
2015-May-19 06:33N 69°40' E 018°59'0 0.0
2015-May-19 05:33N 69°40' E 018°59'0 0.0
2015-May-19 04:33N 69°40' E 018°59'0 0.0
2015-May-19 03:33N 69°40' E 018°59'0 0.0
2015-May-19 02:33N 69°40' E 018°59'0 0.0
2015-May-19 01:33N 69°40' E 018°59'0 0.0
2015-May-19 00:33N 69°40' E 018°59'0 0.0
2015-May-18 23:33N 69°40' E 018°59'0 0.0
2015-May-18 22:33N 69°40' E 018°59'0 0.0
2015-May-18 21:33N 69°40' E 018°59'0 0.0
2015-May-18 20:33N 69°40' E 018°59'0 0.0
2015-May-18 19:33N 69°40' E 018°59'0 0.0
2015-May-18 18:33N 69°40' E 018°59'0 0.0
2015-May-18 17:33N 69°40' E 018°59'0 0.0
2015-May-18 16:33N 69°40' E 018°59'0 0.0
2015-May-18 15:33N 69°40' E 018°59'0 0.0
2015-May-18 14:33N 69°40' E 018°59'  

Dump ship's entire track history